首页
METAR-TAF:

METAR-TAF

机场 :

班吉-姆波科国际机场

班基, 中非共和国

纬度: 04-24N, 经度: 018-31E, 海拔: 365米

当前天气观测

该预报发布于55分钟前的10:30 UTC
风速6节,风向西南,在南转南东西转西北之间变化
温度 30°C
湿度 70%
气压 1016 hPa
能见度10公里或以上
散云层高于2000英尺

METAR: FEFF 231030Z 22006KT 160V300 9999 SCT020 30/24 Q1016 NOSIG

时间: 12:25 (11:25 UTC)

预报

该预报发布于6小时和25分钟前的05:00 UTC
预报有效从23日的 06点(UTC)到 24日的 12点(UTC)
风速6节,风向西转西南
能见度10公里或以上
散云层高于1600英尺
成为
从 23日的 10点(UTC)到 23日的 12点(UTC)
多云层高于2600英尺
少量云层高于3300英尺, 积雨云.
短暂存在
从 23日的 13点(UTC)到 23日的 15点(UTC)
风速15节,风向
能見度: 4000
雷暴, 雨
从 23日的 1700点(UTC)
风速3节,风向多变
能见度10公里或以上
1500米以下无云,无积雨云

TAF: FEFF 230500Z 2306/2412 24006KT 9999 SCT016 BECMG 2310/2312 BKN026 FEW033CB TEMPO 2313/2315 10015KT 4000 TSRA FM231700 VRB03KT CAVOK

超过4000个机场的气象观测和天气预报(METAR&TAF报告)。

可查询的气象台以黄色和红色小点在地图上表示。

将鼠标移到小点上方,可查看气象台名称。

然后点击查看天气观测和预报。

如需切换地图:点击带黑十字的绿色按钮放大地图;点击带横线的绿色按钮缩小地图;或者点击绿色箭头查看邻近地区的地图。


METAR-TAF: